Time;durP1;ratioP1;P1;durP2;ratioP2;P2;SDS_P1;SDS_P2;PMS_P1;PMS_P2;Temp;Humidity;BMP_temperature;BMP_pressure;BME280_temperature;BME280_humidity;BME280_pressure;Samples;Min_cycle;Max_cycle;Signal;HPM_P1;HPM_P2
2021/04/12 04:15:31;;;;;;;4.80;1.10;;;0.90;87.60;;;;;;5051539;28;20059;-67
2021/04/12 04:18:16;;;;;;;11.23;0.90;;;0.90;88.80;;;;;;5051899;28;20115;-67
2021/04/12 04:21:01;;;;;;;8.85;1.13;;;0.90;88.30;;;;;;5052153;28;20608;-67
2021/04/12 04:23:45;;;;;;;6.00;1.00;;;1.00;87.40;;;;;;5052118;28;20033;-67
2021/04/12 04:26:19;;;;;;;5.25;1.27;;;1.00;87.30;;;;;;5051722;28;20510;-67
2021/04/12 04:28:48;;;;;;;16.23;1.30;;;1.00;86.80;;;;;;5051971;28;20476;-68
2021/04/12 04:31:48;;;;;;;11.70;1.27;;;1.10;87.90;;;;;;5052958;28;20021;-70
2021/04/12 04:34:50;;;;;;;13.18;1.58;;;1.00;89.60;;;;;;5055906;28;20534;-67
2021/04/12 04:37:54;;;;;;;11.57;1.35;;;1.00;90.20;;;;;;5055989;28;20108;-66
2021/04/12 04:40:43;;;;;;;6.47;1.08;;;1.10;93.40;;;;;;5055517;28;20029;-67
2021/04/12 04:43:36;;;;;;;9.73;1.02;;;1.60;99.90;;;;;;5055993;28;20032;-66
2021/04/12 04:46:04;;;;;;;7.85;0.82;;;1.60;92.00;;;;;;5055986;28;20025;-68
2021/04/12 04:48:42;;;;;;;10.07;1.40;;;1.60;91.60;;;;;;5054280;28;20029;-66
2021/04/12 04:51:47;;;;;;;9.23;1.77;;;1.50;92.00;;;;;;5055036;28;20033;-68
2021/04/12 04:54:23;;;;;;;13.57;1.38;;;1.50;91.20;;;;;;5051614;28;20086;-66
2021/04/12 04:57:26;;;;;;;10.57;2.45;;;1.50;91.30;;;;;;5055035;28;20035;-66
2021/04/12 05:00:01;;;;;;;21.08;1.27;;;1.50;93.00;;;;;;5054608;28;20088;-67
2021/04/12 05:02:45;;;;;;;14.57;1.33;;;1.50;90.70;;;;;;5054905;28;20067;-68
2021/04/12 05:05:21;;;;;;;6.35;1.10;;;1.50;90.50;;;;;;5056634;28;20116;-69
2021/04/12 05:08:02;;;;;;;7.90;0.98;;;1.50;90.00;;;;;;5053240;28;20025;-70
2021/04/12 05:11:07;;;;;;;4.32;0.98;;;1.40;90.20;;;;;;5057668;28;20494;-70
2021/04/12 05:13:38;;;;;;;14.20;1.08;;;1.40;89.90;;;;;;5071951;28;20044;-70
2021/04/12 05:16:19;;;;;;;8.40;1.17;;;1.40;89.10;;;;;;5062074;28;20037;-70
2021/04/12 05:19:04;;;;;;;22.85;1.20;;;1.40;88.70;;;;;;5062134;28;20099;-70
2021/04/12 05:22:01;;;;;;;13.15;1.83;;;1.40;89.10;;;;;;5055642;28;20025;-70
2021/04/12 05:24:41;;;;;;;21.05;1.27;;;1.40;89.30;;;;;;5054888;28;20056;-71
2021/04/12 05:27:44;;;;;;;5.95;1.30;;;1.40;89.20;;;;;;5055324;28;20044;-67
2021/04/12 05:30:10;;;;;;;19.55;1.20;;;1.50;97.50;;;;;;5054875;28;20025;-69
2021/04/12 05:32:51;;;;;;;13.40;1.10;;;1.70;91.80;;;;;;5054742;28;20445;-68
2021/04/12 05:35:35;;;;;;;18.13;1.27;;;1.70;88.60;;;;;;5054973;28;20017;-68
2021/04/12 05:38:06;;;;;;;26.50;1.90;;;1.70;87.20;;;;;;5054640;28;20033;-68
2021/04/12 05:40:58;;;;;;;17.30;2.05;;;1.70;86.50;;;;;;5054650;28;20472;-68
2021/04/12 05:43:33;;;;;;;7.57;2.53;;;1.70;86.50;;;;;;5054340;28;20029;-68
2021/04/12 05:46:36;;;;;;;13.20;2.00;;;1.70;86.40;;;;;;5054766;28;20469;-68
2021/04/12 05:49:26;;;;;;;18.67;1.33;;;1.70;87.20;;;;;;5054836;28;20025;-68
2021/04/12 05:52:12;;;;;;;12.30;1.38;;;1.70;87.10;;;;;;5054612;28;20033;-69
2021/04/12 05:55:00;;;;;;;26.70;1.67;;;1.70;86.40;;;;;;5054532;28;20021;-68
2021/04/12 05:58:03;;;;;;;13.30;1.45;;;1.70;87.50;;;;;;5054377;28;20025;-68
2021/04/12 06:00:41;;;;;;;25.60;2.13;;;1.70;87.70;;;;;;5054637;28;20024;-68
2021/04/12 06:03:28;;;;;;;41.00;1.95;;;1.70;86.70;;;;;;5054397;28;20068;-69
2021/04/12 06:06:21;;;;;;;16.55;1.35;;;2.20;96.30;;;;;;5054312;28;20017;-69
2021/04/12 06:09:11;;;;;;;16.35;1.50;;;2.20;88.70;;;;;;5054237;28;20074;-69
2021/04/12 06:12:01;;;;;;;19.20;1.67;;;2.10;87.00;;;;;;5054058;28;20496;-68
2021/04/12 06:14:49;;;;;;;17.13;1.40;;;2.20;99.90;;;;;;5053676;28;20052;-69
2021/04/12 06:17:38;;;;;;;22.65;1.65;;;3.10;99.90;;;;;;5054100;28;20382;-67
2021/04/12 06:20:24;;;;;;;27.35;1.60;;;3.20;91.10;;;;;;5054119;28;20053;-68
2021/04/12 06:22:50;;;;;;;59.72;3.33;;;2.90;85.40;;;;;;5053106;28;20431;-69
2021/04/12 06:25:37;;;;;;;40.40;2.90;;;2.70;84.90;;;;;;5054061;28;20104;-68
2021/04/12 06:28:25;;;;;;;19.83;1.63;;;2.50;84.90;;;;;;5054011;28;20449;-71
2021/04/12 06:31:24;;;;;;;12.43;1.42;;;2.40;85.30;;;;;;5053868;28;20017;-70
2021/04/12 06:34:08;;;;;;;21.58;1.70;;;2.90;99.90;;;;;;5054032;28;20060;-69
2021/04/12 06:36:39;;;;;;;11.80;1.50;;;4.00;96.30;;;;;;5053528;28;20112;-69
2021/04/12 06:39:32;;;;;;;34.60;2.63;;;3.80;86.30;;;;;;5053751;28;20403;-68
2021/04/12 06:42:35;;;;;;;26.17;2.08;;;3.40;82.20;;;;;;5053978;28;20055;-69
2021/04/12 06:45:39;;;;;;;17.35;2.67;;;3.10;82.90;;;;;;5053726;28;20025;-67
2021/04/12 06:48:23;;;;;;;37.40;4.47;;;2.90;84.40;;;;;;5053479;28;20021;-67
2021/04/12 06:50:58;;;;;;;30.65;2.22;;;2.80;85.40;;;;;;5053787;28;20021;-70
2021/04/12 06:53:51;;;;;;;28.08;2.08;;;2.80;85.30;;;;;;5053108;28;20032;-66
2021/04/12 06:56:17;;;;;;;25.73;1.58;;;3.40;99.90;;;;;;5053314;28;20024;-67
2021/04/12 06:59:19;;;;;;;19.58;1.83;;;4.10;99.90;;;;;;5052769;28;20082;-67
2021/04/12 07:02:22;;;;;;;17.90;1.73;;;4.60;99.90;;;;;;5052695;28;20021;-68
2021/04/12 07:05:19;;;;;;;13.43;1.38;;;5.00;99.90;;;;;;5053044;28;20067;-68
2021/04/12 07:08:03;;;;;;;6.55;1.10;;;5.30;99.90;;;;;;5053425;28;20021;-68
2021/04/12 07:10:50;;;;;;;17.55;1.13;;;5.50;99.90;;;;;;5052981;28;20028;-68
2021/04/12 07:13:53;;;;;;;17.40;1.65;;;5.70;99.90;;;;;;5052977;28;20073;-68
2021/04/12 07:16:44;;;;;;;4.47;0.73;;;6.00;99.90;;;;;;5052957;28;20072;-68
2021/04/12 07:19:47;;;;;;;12.23;1.20;;;5.90;86.20;;;;;;5052776;28;20486;-68
2021/04/12 07:22:40;;;;;;;10.18;1.00;;;5.60;86.90;;;;;;5052239;28;20033;-73
2021/04/12 07:25:42;;;;;;;33.25;2.00;;;5.40;77.30;;;;;;5052563;28;20021;-73
2021/04/12 07:28:43;;;;;;;16.10;1.77;;;4.90;74.40;;;;;;5052725;28;20533;-73
2021/04/12 07:31:20;;;;;;;6.53;0.90;;;4.60;74.90;;;;;;5051424;28;20041;-73
2021/04/12 07:34:07;;;;;;;7.70;1.02;;;4.40;74.70;;;;;;5052667;28;20551;-73
2021/04/12 07:37:20;;;;;;;8.13;1.10;;;4.10;74.70;;;;;;5052374;28;20021;-72
2021/04/12 07:40:37;;;;;;;2.97;0.85;;;3.90;74.70;;;;;;5050715;28;20040;-73
2021/04/12 07:43:37;;;;;;;12.68;1.38;;;3.80;76.00;;;;;;5052452;28;20017;-73
2021/04/12 07:46:15;;;;;;;11.93;1.42;;;3.70;76.40;;;;;;5052455;28;20036;-73
2021/04/12 07:49:19;;;;;;;14.95;1.80;;;3.70;76.70;;;;;;5052187;28;20036;-73
2021/04/12 07:52:12;;;;;;;8.23;1.40;;;3.70;76.40;;;;;;5052102;28;20500;-72
2021/04/12 07:54:47;;;;;;;5.43;1.10;;;3.70;77.30;;;;;;5052194;28;20480;-72
2021/04/12 07:57:45;;;;;;;6.00;1.25;;;3.70;77.00;;;;;;5052537;28;20423;-73
2021/04/12 08:00:32;;;;;;;7.43;1.63;;;3.70;76.70;;;;;;5052192;28;20021;-73
2021/04/12 08:03:19;;;;;;;12.55;1.08;;;3.60;76.30;;;;;;5052498;28;20112;-73
2021/04/12 08:06:25;;;;;;;3.38;1.15;;;3.60;75.90;;;;;;5051082;28;20032;-73
2021/04/12 08:09:28;;;;;;;8.07;1.20;;;3.50;76.50;;;;;;5052074;28;20049;-73
2021/04/12 08:12:21;;;;;;;28.38;2.10;;;3.50;77.00;;;;;;5051921;28;20029;-73
2021/04/12 08:15:44;;;;;;;3.08;1.00;;;3.50;77.40;;;;;;5051754;28;20045;-73
2021/04/12 08:18:29;;;;;;;15.00;1.55;;;3.60;78.00;;;;;;5049567;28;20441;-73
2021/04/12 08:21:32;;;;;;;4.55;1.10;;;3.50;77.50;;;;;;5049566;28;20025;-73
2021/04/12 08:24:27;;;;;;;6.50;0.90;;;3.60;77.30;;;;;;5051721;28;20037;-72
2021/04/12 08:27:11;;;;;;;4.43;0.90;;;3.50;76.60;;;;;;5051931;28;20554;-73
2021/04/12 08:30:04;;;;;;;2.10;0.73;;;3.50;77.30;;;;;;5051821;28;20032;-73
2021/04/12 08:32:38;;;;;;;2.22;0.77;;;3.50;76.90;;;;;;5051698;28;20033;-73
2021/04/12 08:35:10;;;;;;;9.13;1.00;;;3.40;76.60;;;;;;5051664;28;20472;-73
2021/04/12 08:38:03;;;;;;;2.63;1.00;;;3.40;76.80;;;;;;5051650;28;20052;-73
2021/04/12 08:41:16;;;;;;;4.97;1.25;;;3.40;77.20;;;;;;5052031;28;20053;-73
2021/04/12 08:44:00;;;;;;;4.50;0.70;;;3.40;77.30;;;;;;5051310;28;20037;-72
2021/04/12 08:46:38;;;;;;;9.32;1.00;;;3.40;77.80;;;;;;5051993;28;20025;-72
2021/04/12 08:49:12;;;;;;;6.43;1.10;;;3.40;78.40;;;;;;5050888;28;20575;-69
2021/04/12 08:51:41;;;;;;;6.82;1.33;;;3.40;95.30;;;;;;5031906;28;20080;-73
2021/04/12 08:54:11;;;;;;;4.53;0.90;;;4.40;82.60;;;;;;5051052;28;20029;-72
2021/04/12 08:57:10;;;;;;;2.75;0.98;;;4.20;77.10;;;;;;5051703;28;20108;-72
2021/04/12 08:59:57;;;;;;;4.90;1.10;;;4.00;77.70;;;;;;5051417;28;20047;-72
2021/04/12 09:03:13;;;;;;;3.15;0.70;;;3.90;77.50;;;;;;5051816;28;20123;-72
2021/04/12 09:05:41;;;;;;;0.43;0.43;;;3.80;77.80;;;;;;5051590;28;20389;-71
2021/04/12 09:08:52;;;;;;;6.38;0.82;;;3.70;77.90;;;;;;5051565;28;20538;-72
2021/04/12 09:11:55;;;;;;;11.23;1.27;;;3.90;85.20;;;;;;5051548;28;20053;-72
2021/04/12 09:14:58;;;;;;;7.80;1.10;;;4.00;79.20;;;;;;5050857;28;20041;-74
2021/04/12 09:18:02;;;;;;;4.28;1.02;;;4.10;82.00;;;;;;5052506;28;20017;-71
2021/04/12 09:20:39;;;;;;;7.43;1.55;;;4.00;79.30;;;;;;5050698;28;20029;-71
2021/04/12 09:23:23;;;;;;;4.53;1.10;;;3.90;79.30;;;;;;5052853;28;20029;-71
2021/04/12 09:25:52;;;;;;;6.00;1.10;;;3.80;80.40;;;;;;5052819;28;20017;-70
2021/04/12 09:28:31;;;;;;;5.22;1.02;;;3.70;81.50;;;;;;5054733;28;20012;-69
2021/04/12 09:31:14;;;;;;;2.45;0.82;;;3.70;82.20;;;;;;5054769;28;20025;-69
2021/04/12 09:34:17;;;;;;;10.65;1.42;;;3.70;82.50;;;;;;5054014;28;20036;-70
2021/04/12 09:37:20;;;;;;;6.10;1.52;;;3.60;84.80;;;;;;5054895;28;20029;-70
2021/04/12 09:39:51;;;;;;;2.13;0.93;;;3.60;86.10;;;;;;5054590;28;20025;-69
2021/04/12 09:42:42;;;;;;;4.82;1.00;;;3.50;86.50;;;;;;5054737;28;20476;-68
2021/04/12 09:45:33;;;;;;;;;;;3.40;90.00;;;;;;5055118;28;20051;-68
2021/04/12 09:48:02;;;;;;;1.23;0.80;;;3.40;91.00;;;;;;5054653;28;20363;-68
2021/04/12 09:50:55;;;;;;;3.42;0.90;;;3.40;89.20;;;;;;5053829;28;20029;-68
2021/04/12 09:53:47;;;;;;;4.82;1.13;;;3.40;90.90;;;;;;5052126;28;20033;-69
2021/04/12 09:56:37;;;;;;;9.48;1.35;;;3.40;92.40;;;;;;5053819;28;20029;-70
2021/04/12 09:59:32;;;;;;;16.33;1.75;;;3.40;92.70;;;;;;5054177;28;20116;-71
2021/04/12 10:02:31;;;;;;;7.97;1.27;;;3.40;94.40;;;;;;5051634;28;20025;-71
2021/04/12 10:05:10;;;;;;;3.05;1.15;;;3.30;93.90;;;;;;5053897;28;20488;-71
2021/04/12 10:07:48;;;;;;;4.75;1.00;;;3.40;94.40;;;;;;5053807;28;20028;-71
2021/04/12 10:10:20;;;;;;;2.15;1.00;;;3.40;95.90;;;;;;5054143;28;20104;-71
2021/04/12 10:12:52;;;;;;;6.63;1.08;;;3.40;94.40;;;;;;5053947;28;20029;-70
2021/04/12 10:15:30;;;;;;;1.50;1.00;;;3.30;95.20;;;;;;5053914;28;20055;-70
2021/04/12 10:18:33;;;;;;;7.28;1.48;;;3.30;97.10;;;;;;5054392;28;20078;-71
2021/04/12 10:21:14;;;;;;;8.88;1.40;;;3.30;99.50;;;;;;5054134;28;20062;-71
2021/04/12 10:23:42;;;;;;;2.67;1.13;;;3.40;99.90;;;;;;5053878;28;20494;-73
2021/04/12 10:26:19;;;;;;;4.43;0.90;;;3.40;98.40;;;;;;5049373;28;20040;-73
2021/04/12 10:28:56;;;;;;;4.63;1.63;;;3.40;99.30;;;;;;5049767;28;20485;-73
2021/04/12 10:31:27;;;;;;;3.53;1.23;;;3.40;99.20;;;;;;5052292;28;20056;-73
2021/04/12 10:34:17;;;;;;;2.90;1.25;;;3.50;99.90;;;;;;5052982;28;20059;-72
2021/04/12 10:37:03;;;;;;;3.95;0.90;;;3.40;99.20;;;;;;5052788;28;20044;-73
2021/04/12 10:39:36;;;;;;;8.07;1.38;;;3.40;99.90;;;;;;5050949;28;20028;-72
2021/04/12 10:42:26;;;;;;;5.10;1.38;;;3.50;99.60;;;;;;5053553;28;20384;-72
2021/04/12 10:45:09;;;;;;;5.10;1.17;;;3.50;99.40;;;;;;5062017;28;20033;-72
2021/04/12 10:48:03;;;;;;;9.85;1.65;;;3.60;99.70;;;;;;5053193;28;20040;-72
2021/04/12 10:50:41;;;;;;;11.75;1.50;;;3.60;99.90;;;;;;5052849;28;20472;-72
2021/04/12 10:53:25;;;;;;;7.63;1.80;;;3.60;99.40;;;;;;5053103;28;20033;-72
2021/04/12 10:56:17;;;;;;;3.42;1.30;;;3.50;99.80;;;;;;5052987;28;20049;-72
2021/04/12 10:58:52;;;;;;;13.38;1.10;;;3.40;99.90;;;;;;5059180;28;20405;-72
2021/04/12 11:01:42;;;;;;;1.77;0.90;;;3.40;99.90;;;;;;5052853;28;20017;-72
2021/04/12 11:04:42;;;;;;;6.55;1.23;;;3.40;99.90;;;;;;5053149;28;20025;-72
2021/04/12 11:07:38;;;;;;;28.70;1.70;;;3.50;99.90;;;;;;5053238;28;20128;-72
2021/04/12 11:10:39;;;;;;;3.53;1.13;;;3.50;99.90;;;;;;5052882;28;20108;-72
2021/04/12 11:13:49;;;;;;;3.10;1.10;;;3.40;99.90;;;;;;5052955;28;20037;-72
2021/04/12 11:16:18;;;;;;;2.65;1.10;;;3.40;99.90;;;;;;5049916;28;20049;-72
2021/04/12 11:18:59;;;;;;;4.60;1.40;;;3.40;98.40;;;;;;5052756;28;20376;-72
2021/04/12 11:21:41;;;;;;;3.75;1.10;;;3.50;98.30;;;;;;5052690;28;20029;-74
2021/04/12 11:24:48;;;;;;;9.88;1.00;;;3.50;97.50;;;;;;5052560;28;20032;-73
2021/04/12 11:27:36;;;;;;;4.63;1.08;;;3.50;98.90;;;;;;5052296;28;20040;-73
2021/04/12 11:30:25;;;;;;;5.13;1.05;;;3.50;98.50;;;;;;5052459;28;20029;-71
2021/04/12 11:33:15;;;;;;;4.22;1.23;;;3.60;99.90;;;;;;5052496;28;20047;-72
2021/04/12 11:36:10;;;;;;;2.90;1.48;;;3.50;99.90;;;;;;5052364;28;20021;-70
2021/04/12 11:38:51;;;;;;;2.35;0.82;;;3.60;99.90;;;;;;5052109;28;20029;-70
2021/04/12 11:41:25;;;;;;;2.92;1.00;;;3.70;99.90;;;;;;5052433;28;20120;-71
2021/04/12 11:43:58;;;;;;;1.77;1.02;;;3.70;99.90;;;;;;5052524;28;20108;-71
2021/04/12 11:46:28;;;;;;;5.90;1.05;;;3.50;99.90;;;;;;5052089;28;20495;-71
2021/04/12 11:49:20;;;;;;;1.63;0.90;;;3.40;99.90;;;;;;5052506;28;20029;-71
2021/04/12 11:52:06;;;;;;;2.78;1.00;;;3.30;99.90;;;;;;5052527;28;20025;-70
2021/04/12 11:55:03;;;;;;;1.40;0.80;;;3.20;99.90;;;;;;5051694;28;20123;-70
2021/04/12 11:58:10;;;;;;;1.98;0.90;;;3.30;99.90;;;;;;5051872;28;20037;-73
2021/04/12 12:00:57;;;;;;;1.35;0.77;;;3.40;99.90;;;;;;5069212;28;20114;-71
2021/04/12 12:03:53;;;;;;;1.48;0.90;;;3.40;99.90;;;;;;5052598;28;20354;-70
2021/04/12 12:06:33;;;;;;;1.85;0.82;;;3.30;99.90;;;;;;5051796;28;20029;-70
2021/04/12 12:09:18;;;;;;;;;;;3.20;99.90;;;;;;5052462;28;20025;-70
2021/04/12 12:12:08;;;;;;;2.72;0.88;;;3.30;99.90;;;;;;5050469;28;19913;-70
2021/04/12 12:15:13;;;;;;;1.95;1.00;;;3.20;99.90;;;;;;5051081;28;20049;-70
2021/04/12 12:18:00;;;;;;;1.45;0.75;;;3.20;99.90;;;;;;5050381;28;20080;-70
2021/04/12 12:20:38;;;;;;;3.90;1.00;;;3.10;99.90;;;;;;5051897;28;20113;-69
2021/04/12 12:23:23;;;;;;;2.65;1.00;;;3.00;99.90;;;;;;5051765;28;20021;-69
2021/04/12 12:25:52;;;;;;;1.55;0.80;;;3.00;99.90;;;;;;5049690;28;20051;-70
2021/04/12 12:28:36;;;;;;;1.80;0.90;;;3.00;99.90;;;;;;5051825;28;20024;-70
2021/04/12 12:31:35;;;;;;;3.25;0.98;;;2.90;99.90;;;;;;5051808;28;20029;-70
2021/04/12 12:34:16;;;;;;;3.55;0.95;;;2.90;99.90;;;;;;5051665;28;20033;-70
2021/04/12 12:37:17;;;;;;;2.08;0.93;;;2.90;99.90;;;;;;5051567;28;20025;-69
2021/04/12 12:39:50;;;;;;;2.92;0.98;;;2.80;99.90;;;;;;5048934;28;20025;-69
2021/04/12 12:42:28;;;;;;;1.75;0.93;;;2.70;99.90;;;;;;5051329;28;20163;-69
2021/04/12 12:45:01;;;;;;;1.52;0.90;;;2.70;99.90;;;;;;5050697;28;20052;-69
2021/04/12 12:47:27;;;;;;;3.10;1.00;;;2.70;99.90;;;;;;5051097;28;20044;-69
2021/04/12 12:50:00;;;;;;;1.88;0.88;;;2.70;99.90;;;;;;5051655;28;20033;-69
2021/04/12 12:52:39;;;;;;;1.23;0.80;;;2.70;99.90;;;;;;5052733;28;20036;-69
2021/04/12 12:55:16;;;;;;;2.35;0.90;;;2.70;99.90;;;;;;5055358;28;20188;-69
2021/04/12 12:57:43;;;;;;;3.78;1.10;;;2.60;99.90;;;;;;5055562;28;20024;-69
2021/04/12 13:00:54;;;;;;;2.95;1.10;;;2.60;99.90;;;;;;5054984;28;20438;-69
2021/04/12 13:03:43;;;;;;;2.33;0.98;;;2.60;99.90;;;;;;5053569;28;20029;-69
2021/04/12 13:06:27;;;;;;;4.93;1.33;;;2.50;99.90;;;;;;5054387;28;20108;-69
2021/04/12 13:08:59;;;;;;;2.63;1.40;;;2.60;99.90;;;;;;5053072;28;20234;-69
2021/04/12 13:11:41;;;;;;;2.20;1.20;;;2.60;99.90;;;;;;5054583;28;20387;-69
2021/04/12 13:14:32;;;;;;;5.22;0.93;;;2.60;99.90;;;;;;5052338;28;20045;-68
2021/04/12 13:17:00;;;;;;;3.35;1.00;;;2.60;99.90;;;;;;5053522;28;20017;-67
2021/04/12 13:19:34;;;;;;;2.45;1.05;;;2.60;99.90;;;;;;5059441;28;20060;-68
2021/04/12 13:22:02;;;;;;;3.33;1.10;;;2.60;99.90;;;;;;5054600;28;20024;-67
2021/04/12 13:24:34;;;;;;;2.05;1.05;;;2.50;99.90;;;;;;5054721;28;20099;-68
2021/04/12 13:27:08;;;;;;;1.58;1.27;;;2.60;99.90;;;;;;5062816;28;20033;-68
2021/04/12 13:29:54;;;;;;;1.85;0.85;;;2.60;99.90;;;;;;5057221;28;20029;-68
2021/04/12 13:32:28;;;;;;;0.82;0.82;;;2.60;99.90;;;;;;5060850;28;20033;-68
2021/04/12 13:35:15;;;;;;;1.65;1.00;;;2.70;99.90;;;;;;5061528;28;20036;-69
2021/04/12 13:38:02;;;;;;;1.38;0.98;;;2.70;99.90;;;;;;5062853;28;20379;-69
2021/04/12 13:40:36;;;;;;;1.00;0.80;;;2.70;99.90;;;;;;5064437;28;20503;-69
2021/04/12 13:43:07;;;;;;;1.75;0.80;;;2.60;99.90;;;;;;5063235;28;20056;-70
2021/04/12 13:45:43;;;;;;;1.20;0.77;;;2.60;99.90;;;;;;5063383;28;20025;-69
2021/04/12 13:48:20;;;;;;;0.90;0.80;;;2.60;99.90;;;;;;5063183;28;20028;-70
2021/04/12 13:51:00;;;;;;;2.05;0.75;;;2.70;99.90;;;;;;5063255;28;20016;-70
2021/04/12 13:53:47;;;;;;;2.00;1.17;;;2.60;99.90;;;;;;5063877;28;20039;-69
2021/04/12 13:56:31;;;;;;;3.35;1.10;;;2.60;99.90;;;;;;5060158;28;20112;-70
2021/04/12 13:59:06;;;;;;;2.05;1.00;;;2.70;99.90;;;;;;5057355;28;20484;-69
2021/04/12 14:01:49;;;;;;;0.82;0.82;;;2.70;99.90;;;;;;5054563;28;20086;-69
2021/04/12 14:04:20;;;;;;;1.20;0.98;;;2.70;99.90;;;;;;5055726;28;20017;-69
2021/04/12 14:06:49;;;;;;;0.80;0.80;;;2.70;99.90;;;;;;5063648;28;20020;-69
2021/04/12 14:09:18;;;;;;;1.02;0.85;;;2.80;99.90;;;;;;5064774;28;20016;-69
2021/04/12 14:11:55;;;;;;;1.50;1.00;;;2.80;99.90;;;;;;5063225;28;20021;-70
2021/04/12 14:14:33;;;;;;;1.23;1.08;;;2.70;99.90;;;;;;5060798;28;20048;-70
2021/04/12 14:17:23;;;;;;;1.58;1.23;;;2.70;99.90;;;;;;5059971;28;20025;-69
2021/04/12 14:19:51;;;;;;;1.30;1.20;;;2.70;99.90;;;;;;5062568;28;20021;-70
2021/04/12 14:22:51;;;;;;;1.98;1.40;;;2.70;99.90;;;;;;5062886;28;20024;-70
2021/04/12 14:25:55;;;;;;;1.38;1.27;;;2.80;99.90;;;;;;5061173;28;20025;-70
2021/04/12 14:28:27;;;;;;;1.90;1.30;;;2.70;99.90;;;;;;5052112;28;20056;-69
2021/04/12 14:31:30;;;;;;;1.67;1.50;;;2.70;99.90;;;;;;5055129;28;20079;-69
2021/04/12 14:34:12;;;;;;;1.20;1.02;;;2.80;99.90;;;;;;5048641;28;20048;-70
2021/04/12 14:36:41;;;;;;;1.20;1.10;;;2.80;99.90;;;;;;5052340;28;20029;-69
2021/04/12 14:39:19;;;;;;;2.58;1.17;;;2.70;99.90;;;;;;5053119;28;20025;-70
2021/04/12 14:41:52;;;;;;;1.50;1.40;;;2.70;99.90;;;;;;5049856;28;20028;-70
2021/04/12 14:44:43;;;;;;;2.55;1.33;;;2.80;99.90;;;;;;5042569;28;20055;-70
2021/04/12 14:47:14;;;;;;;1.33;1.05;;;2.90;99.90;;;;;;5049332;28;20388;-70
2021/04/12 14:49:51;;;;;;;1.00;1.00;;;2.80;99.90;;;;;;5052722;28;20043;-70
2021/04/12 14:52:42;;;;;;;1.23;1.05;;;2.80;99.90;;;;;;5053400;28;20032;-70
2021/04/12 14:55:31;;;;;;;1.23;1.00;;;2.80;99.90;;;;;;5053226;28;20028;-70
2021/04/12 14:58:34;;;;;;;1.15;1.05;;;2.80;99.90;;;;;;5053221;28;20384;-68
2021/04/12 15:01:12;;;;;;;0.98;0.98;;;2.70;99.90;;;;;;5052628;28;20112;-71
2021/04/12 15:04:18;;;;;;;1.42;1.33;;;2.60;99.90;;;;;;5053280;28;20493;-71
2021/04/12 15:07:04;;;;;;;1.58;1.10;;;2.60;99.90;;;;;;5047954;28;20029;-71
2021/04/12 15:09:53;;;;;;;1.27;1.10;;;2.60;99.90;;;;;;5052447;28;20516;-70
2021/04/12 15:12:23;;;;;;;1.17;1.00;;;2.60;99.90;;;;;;5052263;28;20073;-70
2021/04/12 15:14:58;;;;;;;0.85;0.85;;;2.60;99.90;;;;;;5049605;28;20096;-70
2021/04/12 15:17:35;;;;;;;1.20;1.00;;;2.60;99.90;;;;;;5050614;28;20476;-70
2021/04/12 15:20:04;;;;;;;0.93;0.93;;;2.50;99.90;;;;;;5049636;28;20029;-70
2021/04/12 15:22:57;;;;;;;0.70;0.70;;;2.60;99.90;;;;;;5049348;28;20029;-71
2021/04/12 15:25:35;;;;;;;1.00;0.90;;;2.50;99.90;;;;;;5059164;28;20032;-71
2021/04/12 15:28:03;;;;;;;0.60;0.57;;;2.50;99.90;;;;;;5058002;28;20028;-71
2021/04/12 15:30:40;;;;;;;0.60;0.60;;;2.60;99.90;;;;;;5061927;28;20431;-71
2021/04/12 15:33:18;;;;;;;1.10;0.80;;;2.60;99.90;;;;;;5066744;28;20036;-71
2021/04/12 15:36:18;;;;;;;0.98;0.82;;;2.60;99.90;;;;;;5038725;28;20024;-71
2021/04/12 15:38:48;;;;;;;2.03;1.20;;;2.60;99.90;;;;;;5059872;28;20021;-72
2021/04/12 15:41:22;;;;;;;0.70;0.70;;;2.60;99.90;;;;;;5051707;28;20083;-72
2021/04/12 15:43:48;;;;;;;0.70;0.70;;;2.50;99.90;;;;;;5051748;28;20515;-71
2021/04/12 15:46:29;;;;;;;0.80;0.80;;;2.50;99.90;;;;;;5052059;28;20025;-70
2021/04/12 15:49:02;;;;;;;0.70;0.70;;;2.50;99.90;;;;;;5051549;28;20430;-70
2021/04/12 15:51:36;;;;;;;0.70;0.70;;;2.50;99.90;;;;;;5049111;28;20021;-69
2021/04/12 15:54:01;;;;;;;0.65;0.65;;;2.40;99.90;;;;;;5051747;28;20029;-70
2021/04/12 15:56:34;;;;;;;1.15;1.00;;;2.50;99.90;;;;;;5051295;28;20541;-69
2021/04/12 15:59:02;;;;;;;0.70;0.70;;;2.60;99.90;;;;;;5051514;28;20032;-70
2021/04/12 16:01:46;;;;;;;1.33;0.98;;;2.70;99.90;;;;;;5050985;28;20541;-70
2021/04/12 16:04:13;;;;;;;1.13;0.95;;;2.60;99.90;;;;;;5051487;28;20028;-70
2021/04/12 16:06:41;;;;;;;0.70;0.70;;;2.50;99.90;;;;;;5051222;28;20389;-70
2021/04/12 16:09:25;;;;;;;0.80;0.80;;;2.50;99.90;;;;;;5051748;28;20059;-71
2021/04/12 16:12:02;;;;;;;1.73;0.88;;;2.40;99.90;;;;;;5051106;28;20420;-70
2021/04/12 16:14:39;;;;;;;0.82;0.80;;;2.30;99.90;;;;;;5051222;28;20048;-70
2021/04/12 16:17:23;;;;;;;0.75;0.75;;;2.40;99.90;;;;;;5051329;28;20028;-70
2021/04/12 16:20:10;;;;;;;1.40;0.80;;;2.40;99.90;;;;;;5051422;28;20029;-69
2021/04/12 16:22:44;;;;;;;0.85;0.85;;;2.40;99.90;;;;;;5051937;28;20025;-69
2021/04/12 16:25:18;;;;;;;0.70;0.70;;;2.40;99.90;;;;;;5052094;28;20025;-68
2021/04/12 16:28:03;;;;;;;1.05;0.70;;;3.90;99.90;;;;;;5051082;28;20025;-69
2021/04/12 16:30:42;;;;;;;0.70;0.70;;;4.30;99.90;;;;;;5052041;28;20025;-68
2021/04/12 16:33:20;;;;;;;0.60;0.60;;;3.60;99.90;;;;;;5052142;28;20033;-69
2021/04/12 16:35:57;;;;;;;0.60;0.60;;;3.10;99.90;;;;;;5051817;28;20075;-68
2021/04/12 16:38:23;;;;;;;2.13;0.77;;;2.90;99.90;;;;;;5051902;28;20025;-69
2021/04/12 16:40:55;;;;;;;0.80;0.80;;;2.70;99.90;;;;;;5051584;28;20430;-69
2021/04/12 16:43:27;;;;;;;0.60;0.60;;;2.60;99.90;;;;;;5052093;28;20353;-68
2021/04/12 16:46:01;;;;;;;1.65;0.90;;;2.60;99.90;;;;;;5051531;28;20017;-69
2021/04/12 16:48:36;;;;;;;0.93;0.80;;;2.60;99.90;;;;;;5051790;28;20198;-68
2021/04/12 16:51:11;;;;;;;2.70;0.60;;;2.60;99.90;;;;;;5051526;28;20029;-68
2021/04/12 16:53:47;;;;;;;0.90;0.70;;;2.50;99.90;;;;;;5051798;28;20037;-69
2021/04/12 16:56:32;;;;;;;0.70;0.70;;;2.50;99.90;;;;;;5051935;28;20251;-69
2021/04/12 16:59:24;;;;;;;1.33;0.82;;;2.50;99.90;;;;;;5051482;28;20029;-69
2021/04/12 17:01:57;;;;;;;0.70;0.70;;;2.50;99.90;;;;;;5051765;28;20036;-69
2021/04/12 17:04:36;;;;;;;0.82;0.75;;;2.40;99.90;;;;;;5051632;28;20387;-69
2021/04/12 17:07:26;;;;;;;1.73;0.70;;;2.40;99.90;;;;;;5051927;28;20021;-69
2021/04/12 17:10:11;;;;;;;0.70;0.70;;;2.30;99.90;;;;;;5051747;28;20032;-69
2021/04/12 17:12:42;;;;;;;1.08;0.90;;;2.30;99.90;;;;;;5051306;28;20029;-69
2021/04/12 17:15:14;;;;;;;1.00;0.90;;;2.30;99.90;;;;;;5051352;28;20135;-69
2021/04/12 17:17:44;;;;;;;0.82;0.80;;;2.30;99.90;;;;;;5051507;28;20021;-69
2021/04/12 17:20:13;;;;;;;1.58;0.80;;;2.30;99.90;;;;;;5051794;28;20455;-69
2021/04/12 17:22:42;;;;;;;0.60;0.60;;;2.30;99.90;;;;;;5051466;28;20025;-69
2021/04/12 17:25:22;;;;;;;1.27;0.70;;;2.30;99.90;;;;;;5051370;28;20048;-69
2021/04/12 17:28:04;;;;;;;0.80;0.80;;;2.30;99.90;;;;;;5051513;28;20028;-69
2021/04/12 17:30:35;;;;;;;1.83;0.90;;;2.30;99.90;;;;;;5051232;28;20025;-69
2021/04/12 17:33:05;;;;;;;0.88;0.88;;;2.30;99.90;;;;;;5051117;28;20512;-69
2021/04/12 17:35:50;;;;;;;0.80;0.80;;;2.30;99.90;;;;;;5051543;28;20503;-69
2021/04/12 17:38:32;;;;;;;1.00;0.90;;;2.30;99.90;;;;;;5052219;28;20021;-69
2021/04/12 17:41:09;;;;;;;1.70;0.80;;;2.30;99.90;;;;;;5054726;28;20017;-69
2021/04/12 17:43:40;;;;;;;1.00;0.90;;;2.30;99.90;;;;;;5052694;28;20021;-70
2021/04/12 17:46:51;;;;;;;0.73;0.73;;;2.50;99.90;;;;;;5054402;28;20032;-70
2021/04/12 17:49:25;;;;;;;1.35;1.00;;;2.60;99.90;;;;;;5053141;28;20178;-69
2021/04/12 17:52:04;;;;;;;0.80;0.80;;;2.40;99.90;;;;;;5052341;28;20025;-69
2021/04/12 17:54:34;;;;;;;1.02;1.00;;;2.40;99.90;;;;;;5054580;28;20064;-69
2021/04/12 17:57:04;;;;;;;0.80;0.80;;;2.40;99.90;;;;;;5054324;28;20476;-69
2021/04/12 17:59:51;;;;;;;0.70;0.70;;;2.30;99.90;;;;;;5054868;28;20071;-69
2021/04/12 18:02:31;;;;;;;1.95;0.90;;;2.30;99.90;;;;;;5045015;28;20108;-69
2021/04/12 18:05:06;;;;;;;0.70;0.70;;;2.20;99.90;;;;;;5036848;28;20439;-69
2021/04/12 18:07:36;;;;;;;0.90;0.90;;;2.20;99.90;;;;;;5045502;28;20112;-69
2021/04/12 18:10:19;;;;;;;0.95;0.77;;;2.20;99.90;;;;;;5050729;28;20029;-69
2021/04/12 18:12:59;;;;;;;0.80;0.80;;;2.30;99.90;;;;;;5039288;28;20032;-69
2021/04/12 18:15:44;;;;;;;0.73;0.73;;;2.30;99.90;;;;;;5033693;28;20045;-68
2021/04/12 18:18:22;;;;;;;0.63;0.63;;;2.30;99.90;;;;;;5036366;28;20108;-69
2021/04/12 18:20:52;;;;;;;2.38;0.80;;;2.20;99.90;;;;;;5053638;28;20308;-69
2021/04/12 18:23:35;;;;;;;1.00;0.90;;;2.20;99.90;;;;;;5045174;28;20024;-69
2021/04/12 18:26:27;;;;;;;0.90;0.70;;;2.20;99.90;;;;;;5046098;28;20024;-70
2021/04/12 18:29:04;;;;;;;0.80;0.80;;;2.30;99.90;;;;;;5047179;28;20041;-68
2021/04/12 18:31:51;;;;;;;1.50;0.85;;;2.30;99.90;;;;;;5051604;28;20055;-69
2021/04/12 18:34:47;;;;;;;0.60;0.60;;;2.20;99.90;;;;;;5047269;28;20044;-69
2021/04/12 18:37:26;;;;;;;0.70;0.70;;;2.30;99.90;;;;;;5042108;28;20033;-69